sensor_id;sensor_type;location;lat;lon;timestamp;pressure;altitude;pressure_sealevel;temperature;humidity
6132;BME280;3097;42.692;23.278;2022-10-16T00:01:24;95657.66;;;9.25;90.81
6132;BME280;3097;42.692;23.278;2022-10-16T00:03:51;95644.41;;;9.15;90.43
6132;BME280;3097;42.692;23.278;2022-10-16T00:06:18;95651.69;;;9.11;90.77
6132;BME280;3097;42.692;23.278;2022-10-16T00:08:44;95670.75;;;9.23;90.23
6132;BME280;3097;42.692;23.278;2022-10-16T00:11:16;95674.13;;;9.24;90.15
6132;BME280;3097;42.692;23.278;2022-10-16T00:13:45;95676.44;;;9.19;90.36
6132;BME280;3097;42.692;23.278;2022-10-16T00:16:12;95677.84;;;9.15;90.78
6132;BME280;3097;42.692;23.278;2022-10-16T00:18:38;95677.59;;;9.10;90.79
6132;BME280;3097;42.692;23.278;2022-10-16T00:21:08;95657.56;;;8.92;90.86
6132;BME280;3097;42.692;23.278;2022-10-16T00:23:34;95678.75;;;9.01;90.80
6132;BME280;3097;42.692;23.278;2022-10-16T00:26:03;95681.72;;;8.98;91.14
6132;BME280;3097;42.692;23.278;2022-10-16T00:28:30;95681.72;;;8.98;90.79
6132;BME280;3097;42.692;23.278;2022-10-16T00:30:56;95688.81;;;8.96;90.84
6132;BME280;3097;42.692;23.278;2022-10-16T00:33:22;95685.22;;;8.90;90.70
6132;BME280;3097;42.692;23.278;2022-10-16T00:35:47;95692.16;;;8.89;91.03
6132;BME280;3097;42.692;23.278;2022-10-16T00:38:13;95688.38;;;8.85;91.18
6132;BME280;3097;42.692;23.278;2022-10-16T00:40:39;95694.13;;;8.87;91.28
6132;BME280;3097;42.692;23.278;2022-10-16T00:43:12;95669.31;;;8.73;91.23
6132;BME280;3097;42.692;23.278;2022-10-16T00:45:39;95688.38;;;8.85;91.16
6132;BME280;3097;42.692;23.278;2022-10-16T00:48:11;95683.63;;;8.82;91.33
6132;BME280;3097;42.692;23.278;2022-10-16T00:50:37;95651.06;;;8.55;91.42
6132;BME280;3097;42.692;23.278;2022-10-16T00:53:04;95687.56;;;8.78;91.07
6132;BME280;3097;42.692;23.278;2022-10-16T00:55:30;95682.59;;;8.77;91.09
6132;BME280;3097;42.692;23.278;2022-10-16T00:57:56;95674.28;;;8.75;91.09
6132;BME280;3097;42.692;23.278;2022-10-16T01:00:25;95688.91;;;8.74;91.13
6132;BME280;3097;42.692;23.278;2022-10-16T01:02:56;95666.47;;;8.55;91.02
6132;BME280;3097;42.692;23.278;2022-10-16T01:05:55;95688.28;;;8.72;91.06
6132;BME280;3097;42.692;23.278;2022-10-16T01:08:41;95685.09;;;8.64;91.55
6132;BME280;3097;42.692;23.278;2022-10-16T01:11:22;95685.09;;;8.64;91.66
6132;BME280;3097;42.692;23.278;2022-10-16T01:13:59;95692.25;;;8.68;91.04
6132;BME280;3097;42.692;23.278;2022-10-16T01:16:38;95651.34;;;8.39;90.62
6132;BME280;3097;42.692;23.278;2022-10-16T01:19:14;95691.78;;;8.58;90.75
6132;BME280;3097;42.692;23.278;2022-10-16T01:21:44;95644.91;;;8.28;91.25
6132;BME280;3097;42.692;23.278;2022-10-16T01:24:44;95683.41;;;8.49;91.12
6132;BME280;3097;42.692;23.278;2022-10-16T01:27:13;95682.78;;;8.41;91.52
6132;BME280;3097;42.692;23.278;2022-10-16T01:34:56;95676.66;;;8.42;91.83
6132;BME280;3097;42.692;23.278;2022-10-16T01:37:38;95676.22;;;8.38;91.38
6132;BME280;3097;42.692;23.278;2022-10-16T01:40:09;95682.22;;;8.45;91.28
6132;BME280;3097;42.692;23.278;2022-10-16T01:42:39;95684.75;;;8.39;90.90
6132;BME280;3097;42.692;23.278;2022-10-16T01:45:08;95685.34;;;8.41;90.50
6132;BME280;3097;42.692;23.278;2022-10-16T01:47:37;95686.50;;;8.38;90.39
6132;BME280;3097;42.692;23.278;2022-10-16T01:50:05;95682.47;;;8.29;90.65
6132;BME280;3097;42.692;23.278;2022-10-16T01:52:34;95657.03;;;8.13;90.73
6132;BME280;3097;42.692;23.278;2022-10-16T01:55:02;95685.56;;;8.18;91.10
6132;BME280;3097;42.692;23.278;2022-10-16T01:57:29;95695.44;;;8.21;91.61
6132;BME280;3097;42.692;23.278;2022-10-16T01:59:58;95696.06;;;8.23;91.44
6132;BME280;3097;42.692;23.278;2022-10-16T02:02:28;95661.69;;;7.96;91.76
6132;BME280;3097;42.692;23.278;2022-10-16T02:04:58;95702.59;;;8.26;91.92
6132;BME280;3097;42.692;23.278;2022-10-16T02:07:27;95688.66;;;8.13;91.86
6132;BME280;3097;42.692;23.278;2022-10-16T02:09:52;95695.81;;;8.18;91.51
6132;BME280;3097;42.692;23.278;2022-10-16T02:12:27;95706.28;;;8.16;91.76
6132;BME280;3097;42.692;23.278;2022-10-16T02:14:54;95694.53;;;8.07;92.04
6132;BME280;3097;42.692;23.278;2022-10-16T02:17:20;95677.44;;;7.93;91.85
6132;BME280;3097;42.692;23.278;2022-10-16T02:19:48;95716.97;;;8.20;91.72
6132;BME280;3097;42.692;23.278;2022-10-16T02:22:22;95722.03;;;8.13;91.80
6132;BME280;3097;42.692;23.278;2022-10-16T02:25:17;95694.66;;;7.99;91.80
6132;BME280;3097;42.692;23.278;2022-10-16T02:30:27;95727.91;;;8.07;92.27
6132;BME280;3097;42.692;23.278;2022-10-16T02:32:56;95709.41;;;7.91;92.33
6132;BME280;3097;42.692;23.278;2022-10-16T02:35:24;95718.41;;;8.01;91.78
6132;BME280;3097;42.692;23.278;2022-10-16T02:37:51;95729.50;;;8.08;91.50
6132;BME280;3097;42.692;23.278;2022-10-16T02:40:17;95718.28;;;8.09;91.92
6132;BME280;3097;42.692;23.278;2022-10-16T02:42:43;95719.81;;;8.04;92.21
6132;BME280;3097;42.692;23.278;2022-10-16T02:45:10;95729.47;;;8.02;92.47
6132;BME280;3097;42.692;23.278;2022-10-16T02:47:36;95642.25;;;7.45;92.31
6132;BME280;3097;42.692;23.278;2022-10-16T02:50:02;95729.22;;;7.97;91.84
6132;BME280;3097;42.692;23.278;2022-10-16T02:52:28;95730.72;;;7.91;91.87
6132;BME280;3097;42.692;23.278;2022-10-16T02:54:53;95740.25;;;7.97;91.62
6132;BME280;3097;42.692;23.278;2022-10-16T02:57:19;95712.03;;;7.76;91.64
6132;BME280;3097;42.692;23.278;2022-10-16T02:59:44;95724.69;;;7.77;91.72
6132;BME280;3097;42.692;23.278;2022-10-16T03:02:10;95715.50;;;7.68;91.53
6132;BME280;3097;42.692;23.278;2022-10-16T03:04:36;95742.88;;;7.83;91.76
6132;BME280;3097;42.692;23.278;2022-10-16T03:07:02;95743.69;;;7.83;91.75
6132;BME280;3097;42.692;23.278;2022-10-16T03:09:27;95732.38;;;7.77;91.80
6132;BME280;3097;42.692;23.278;2022-10-16T03:11:53;95720.22;;;7.65;91.96
6132;BME280;3097;42.692;23.278;2022-10-16T03:14:18;95701.75;;;7.55;91.78
6132;BME280;3097;42.692;23.278;2022-10-16T03:16:44;95741.22;;;7.75;92.30
6132;BME280;3097;42.692;23.278;2022-10-16T03:19:09;95747.44;;;7.81;92.40
6132;BME280;3097;42.692;23.278;2022-10-16T03:21:35;95750.97;;;7.80;92.62
6132;BME280;3097;42.692;23.278;2022-10-16T03:24:00;95750.78;;;7.81;92.70
6132;BME280;3097;42.692;23.278;2022-10-16T03:26:25;95748.69;;;7.70;93.23
6132;BME280;3097;42.692;23.278;2022-10-16T03:28:51;95758.72;;;7.86;92.23
6132;BME280;3097;42.692;23.278;2022-10-16T03:31:16;95758.84;;;7.78;92.51
6132;BME280;3097;42.692;23.278;2022-10-16T03:33:42;95749.56;;;7.77;92.03
6132;BME280;3097;42.692;23.278;2022-10-16T03:36:07;95765.00;;;7.84;91.79
6132;BME280;3097;42.692;23.278;2022-10-16T03:38:33;95741.59;;;7.72;91.83
6132;BME280;3097;42.692;23.278;2022-10-16T03:40:58;95759.88;;;7.84;92.12
6132;BME280;3097;42.692;23.278;2022-10-16T03:43:24;95760.69;;;7.84;91.90
6132;BME280;3097;42.692;23.278;2022-10-16T03:45:50;95750.53;;;7.76;92.25
6132;BME280;3097;42.692;23.278;2022-10-16T03:48:17;95751.94;;;7.78;92.64
6132;BME280;3097;42.692;23.278;2022-10-16T03:50:43;95732.44;;;7.63;92.77
6132;BME280;3097;42.692;23.278;2022-10-16T03:53:08;95750.91;;;7.73;92.67
6132;BME280;3097;42.692;23.278;2022-10-16T03:55:34;95745.16;;;7.71;92.73
6132;BME280;3097;42.692;23.278;2022-10-16T03:58:00;95745.88;;;7.65;93.11
6132;BME280;3097;42.692;23.278;2022-10-16T04:00:26;95750.03;;;7.66;92.87
6132;BME280;3097;42.692;23.278;2022-10-16T04:02:51;95719.03;;;7.46;92.79
6132;BME280;3097;42.692;23.278;2022-10-16T04:05:17;95722.66;;;7.52;92.23
6132;BME280;3097;42.692;23.278;2022-10-16T04:07:42;95720.00;;;7.45;91.99
6132;BME280;3097;42.692;23.278;2022-10-16T04:10:08;95754.91;;;7.61;91.37
6132;BME280;3097;42.692;23.278;2022-10-16T04:12:33;95755.63;;;7.55;91.75
6132;BME280;3097;42.692;23.278;2022-10-16T04:14:59;95749.00;;;7.46;91.93
6132;BME280;3097;42.692;23.278;2022-10-16T04:17:24;95742.03;;;7.39;92.25
6132;BME280;3097;42.692;23.278;2022-10-16T04:19:50;95751.94;;;7.43;92.51
6132;BME280;3097;42.692;23.278;2022-10-16T04:22:15;95750.09;;;7.36;92.33
6132;BME280;3097;42.692;23.278;2022-10-16T04:24:41;95718.91;;;7.18;92.33
6132;BME280;3097;42.692;23.278;2022-10-16T04:27:06;95757.81;;;7.36;92.22
6132;BME280;3097;42.692;23.278;2022-10-16T04:29:31;95756.22;;;7.35;92.23
6132;BME280;3097;42.692;23.278;2022-10-16T04:31:57;95769.19;;;7.34;92.06
6132;BME280;3097;42.692;23.278;2022-10-16T04:34:22;95696.13;;;6.94;92.29
6132;BME280;3097;42.692;23.278;2022-10-16T04:36:48;95770.34;;;7.31;92.34
6132;BME280;3097;42.692;23.278;2022-10-16T04:39:14;95720.84;;;7.02;92.42
6132;BME280;3097;42.692;23.278;2022-10-16T04:41:40;95756.41;;;7.19;92.58
6132;BME280;3097;42.692;23.278;2022-10-16T04:44:05;95766.81;;;7.32;92.30
6132;BME280;3097;42.692;23.278;2022-10-16T04:46:31;95772.38;;;7.36;91.66
6132;BME280;3097;42.692;23.278;2022-10-16T04:48:56;95743.03;;;7.09;91.67
6132;BME280;3097;42.692;23.278;2022-10-16T04:51:22;95779.56;;;7.26;91.81
6132;BME280;3097;42.692;23.278;2022-10-16T04:53:47;95780.69;;;7.23;92.04
6132;BME280;3097;42.692;23.278;2022-10-16T04:56:13;95783.88;;;7.25;92.07
6132;BME280;3097;42.692;23.278;2022-10-16T04:58:40;95789.97;;;7.24;92.15
6132;BME280;3097;42.692;23.278;2022-10-16T05:01:05;95794.47;;;7.22;92.33
6132;BME280;3097;42.692;23.278;2022-10-16T05:03:30;95797.59;;;7.32;92.00
6132;BME280;3097;42.692;23.278;2022-10-16T05:05:56;95789.25;;;7.30;92.07
6132;BME280;3097;42.692;23.278;2022-10-16T05:08:21;95797.59;;;7.32;92.50
6132;BME280;3097;42.692;23.278;2022-10-16T05:10:47;95794.84;;;7.34;92.27
6132;BME280;3097;42.692;23.278;2022-10-16T05:13:12;95811.13;;;7.41;92.22
6132;BME280;3097;42.692;23.278;2022-10-16T05:15:38;95809.78;;;7.45;92.17
6132;BME280;3097;42.692;23.278;2022-10-16T05:18:03;95802.06;;;7.45;92.30
6132;BME280;3097;42.692;23.278;2022-10-16T05:20:29;95808.00;;;7.46;93.40
6132;BME280;3097;42.692;23.278;2022-10-16T05:22:54;95805.97;;;7.56;94.52
6132;BME280;3097;42.692;23.278;2022-10-16T05:25:20;95791.09;;;7.66;95.11
6132;BME280;3097;42.692;23.278;2022-10-16T05:27:48;95799.81;;;7.86;94.75
6132;BME280;3097;42.692;23.278;2022-10-16T05:30:15;95808.88;;;8.03;93.82
6132;BME280;3097;42.692;23.278;2022-10-16T05:32:40;95808.03;;;8.18;92.40
6132;BME280;3097;42.692;23.278;2022-10-16T05:35:06;95805.94;;;8.28;91.48
6132;BME280;3097;42.692;23.278;2022-10-16T05:37:32;95808.22;;;8.37;91.91
6132;BME280;3097;42.692;23.278;2022-10-16T05:39:57;95815.63;;;8.47;92.86
6132;BME280;3097;42.692;23.278;2022-10-16T05:42:23;95815.13;;;8.58;92.66
6132;BME280;3097;42.692;23.278;2022-10-16T05:44:48;95806.81;;;8.56;92.60
6132;BME280;3097;42.692;23.278;2022-10-16T05:47:14;95731.72;;;8.11;92.11
6132;BME280;3097;42.692;23.278;2022-10-16T05:49:40;95813.25;;;8.73;92.01
6132;BME280;3097;42.692;23.278;2022-10-16T05:52:05;95784.91;;;8.60;91.39
6132;BME280;3097;42.692;23.278;2022-10-16T05:54:30;95811.00;;;8.85;91.16
6132;BME280;3097;42.692;23.278;2022-10-16T05:56:56;95826.16;;;9.01;92.00
6132;BME280;3097;42.692;23.278;2022-10-16T05:59:21;95835.72;;;9.14;92.03
6132;BME280;3097;42.692;23.278;2022-10-16T06:01:47;95836.91;;;9.18;92.02
6132;BME280;3097;42.692;23.278;2022-10-16T06:04:12;95804.00;;;9.07;92.33
6132;BME280;3097;42.692;23.278;2022-10-16T06:06:37;95845.56;;;9.38;92.24
6132;BME280;3097;42.692;23.278;2022-10-16T06:09:03;95814.03;;;9.29;90.94
6132;BME280;3097;42.692;23.278;2022-10-16T06:11:31;95844.88;;;9.57;89.86
6132;BME280;3097;42.692;23.278;2022-10-16T06:13:59;95844.50;;;9.60;89.96
6132;BME280;3097;42.692;23.278;2022-10-16T06:16:27;95856.13;;;9.56;89.78
6132;BME280;3097;42.692;23.278;2022-10-16T06:18:54;95853.19;;;9.59;90.25
6132;BME280;3097;42.692;23.278;2022-10-16T06:21:24;95847.41;;;9.51;90.02
6132;BME280;3097;42.692;23.278;2022-10-16T06:23:51;95851.59;;;9.58;89.86
6132;BME280;3097;42.692;23.278;2022-10-16T06:26:18;95862.50;;;9.60;89.66
6132;BME280;3097;42.692;23.278;2022-10-16T06:28:44;95864.31;;;9.66;89.45
6132;BME280;3097;42.692;23.278;2022-10-16T06:31:11;95862.88;;;9.57;89.81
6132;BME280;3097;42.692;23.278;2022-10-16T06:33:38;95858.56;;;9.64;89.91
6132;BME280;3097;42.692;23.278;2022-10-16T06:36:10;95863.16;;;9.69;90.23
6132;BME280;3097;42.692;23.278;2022-10-16T06:38:36;95862.78;;;9.79;89.88
6132;BME280;3097;42.692;23.278;2022-10-16T06:41:03;95870.13;;;9.82;89.37
6132;BME280;3097;42.692;23.278;2022-10-16T06:43:29;95870.13;;;9.75;89.97
6132;BME280;3097;42.692;23.278;2022-10-16T06:46:01;95878.34;;;10.59;89.45
6132;BME280;3097;42.692;23.278;2022-10-16T06:48:27;95873.34;;;12.84;81.22
6132;BME280;3097;42.692;23.278;2022-10-16T06:50:57;95889.34;;;15.69;71.26
6132;BME280;3097;42.692;23.278;2022-10-16T06:53:23;95878.03;;;18.33;59.49
6132;BME280;3097;42.692;23.278;2022-10-16T06:55:48;95878.97;;;20.38;52.51
6132;BME280;3097;42.692;23.278;2022-10-16T06:58:14;95871.38;;;21.89;47.98
6132;BME280;3097;42.692;23.278;2022-10-16T07:00:39;95874.19;;;23.11;45.36
6132;BME280;3097;42.692;23.278;2022-10-16T07:03:05;95871.47;;;24.26;41.85
6132;BME280;3097;42.692;23.278;2022-10-16T07:05:30;95870.72;;;24.63;41.35
6132;BME280;3097;42.692;23.278;2022-10-16T07:07:55;95871.59;;;25.29;38.21
6132;BME280;3097;42.692;23.278;2022-10-16T07:10:21;95871.59;;;26.16;38.01
6132;BME280;3097;42.692;23.278;2022-10-16T07:12:49;95873.06;;;26.22;36.78
6132;BME280;3097;42.692;23.278;2022-10-16T07:15:15;95876.56;;;26.58;36.66
6132;BME280;3097;42.692;23.278;2022-10-16T07:17:40;95876.91;;;27.02;35.71
6132;BME280;3097;42.692;23.278;2022-10-16T07:20:06;95877.47;;;27.34;33.95
6132;BME280;3097;42.692;23.278;2022-10-16T07:22:32;95871.44;;;27.20;34.50
6132;BME280;3097;42.692;23.278;2022-10-16T07:24:57;95872.19;;;26.90;35.63
6132;BME280;3097;42.692;23.278;2022-10-16T07:27:23;95879.03;;;26.77;36.26
6132;BME280;3097;42.692;23.278;2022-10-16T07:29:49;95858.47;;;26.11;36.21
6132;BME280;3097;42.692;23.278;2022-10-16T07:32:14;95872.41;;;25.43;37.78
6132;BME280;3097;42.692;23.278;2022-10-16T07:34:40;95870.59;;;24.92;38.98
6132;BME280;3097;42.692;23.278;2022-10-16T07:37:05;95873.59;;;24.24;39.91
6132;BME280;3097;42.692;23.278;2022-10-16T07:39:31;95880.84;;;23.61;39.73
6132;BME280;3097;42.692;23.278;2022-10-16T07:41:56;95887.50;;;22.86;43.09
6132;BME280;3097;42.692;23.278;2022-10-16T07:44:21;95886.34;;;22.63;44.93
6132;BME280;3097;42.692;23.278;2022-10-16T07:46:47;95864.41;;;22.33;44.80
6132;BME280;3097;42.692;23.278;2022-10-16T07:49:12;95891.19;;;22.35;45.63
6132;BME280;3097;42.692;23.278;2022-10-16T07:51:38;95893.97;;;21.95;44.25
6132;BME280;3097;42.692;23.278;2022-10-16T07:54:04;95891.69;;;21.53;45.78
6132;BME280;3097;42.692;23.278;2022-10-16T07:56:31;95898.00;;;21.32;46.13
6132;BME280;3097;42.692;23.278;2022-10-16T07:58:57;95902.16;;;20.82;45.77
6132;BME280;3097;42.692;23.278;2022-10-16T08:01:23;95911.09;;;20.19;48.94
6132;BME280;3097;42.692;23.278;2022-10-16T08:03:50;95905.25;;;20.01;48.56
6132;BME280;3097;42.692;23.278;2022-10-16T08:06:16;95910.19;;;19.93;49.69
6132;BME280;3097;42.692;23.278;2022-10-16T08:08:42;95905.59;;;20.15;49.44
6132;BME280;3097;42.692;23.278;2022-10-16T08:11:08;95906.00;;;20.49;48.75
6132;BME280;3097;42.692;23.278;2022-10-16T08:13:34;95892.66;;;20.56;47.42
6132;BME280;3097;42.692;23.278;2022-10-16T08:16:00;95895.34;;;20.96;49.14
6132;BME280;3097;42.692;23.278;2022-10-16T08:18:26;95893.03;;;21.20;46.61
6132;BME280;3097;42.692;23.278;2022-10-16T08:20:56;95898.97;;;20.70;46.08
6132;BME280;3097;42.692;23.278;2022-10-16T08:23:22;95902.84;;;20.42;47.66
6132;BME280;3097;42.692;23.278;2022-10-16T08:25:48;95897.22;;;20.23;49.19
6132;BME280;3097;42.692;23.278;2022-10-16T08:28:13;95905.78;;;19.98;49.16
6132;BME280;3097;42.692;23.278;2022-10-16T08:30:39;95887.28;;;20.20;49.29
6132;BME280;3097;42.692;23.278;2022-10-16T08:33:04;95888.81;;;20.06;48.49
6132;BME280;3097;42.692;23.278;2022-10-16T08:35:31;95893.06;;;19.70;49.75
6132;BME280;3097;42.692;23.278;2022-10-16T08:37:56;95898.81;;;19.35;49.76
6132;BME280;3097;42.692;23.278;2022-10-16T08:40:27;95891.97;;;19.24;50.13
6132;BME280;3097;42.692;23.278;2022-10-16T08:50:37;95895.41;;;18.98;51.95
6132;BME280;3097;42.692;23.278;2022-10-16T08:53:04;95892.81;;;18.49;51.44
6132;BME280;3097;42.692;23.278;2022-10-16T08:55:49;95897.31;;;18.32;52.26
6132;BME280;3097;42.692;23.278;2022-10-16T08:58:21;95907.34;;;18.40;51.07
6132;BME280;3097;42.692;23.278;2022-10-16T09:00:55;95904.06;;;18.28;52.44
6132;BME280;3097;42.692;23.278;2022-10-16T09:06:39;95905.41;;;18.08;51.72
6132;BME280;3097;42.692;23.278;2022-10-16T09:12:21;95901.66;;;17.83;50.70
6132;BME280;3097;42.692;23.278;2022-10-16T09:14:58;95891.09;;;17.89;50.43
6132;BME280;3097;42.692;23.278;2022-10-16T09:22:53;95895.25;;;18.12;50.42
6132;BME280;3097;42.692;23.278;2022-10-16T09:25:22;95894.03;;;18.19;52.24
6132;BME280;3097;42.692;23.278;2022-10-16T09:27:48;95901.41;;;18.01;50.54
6132;BME280;3097;42.692;23.278;2022-10-16T09:30:19;95900.59;;;18.00;48.61
6132;BME280;3097;42.692;23.278;2022-10-16T09:32:47;95892.38;;;17.70;49.30
6132;BME280;3097;42.692;23.278;2022-10-16T09:35:39;95899.09;;;17.49;50.20
6132;BME280;3097;42.692;23.278;2022-10-16T09:38:06;95904.09;;;17.34;49.30
6132;BME280;3097;42.692;23.278;2022-10-16T09:40:37;95895.31;;;17.23;49.95
6132;BME280;3097;42.692;23.278;2022-10-16T09:45:41;95898.78;;;17.46;50.85
6132;BME280;3097;42.692;23.278;2022-10-16T09:48:18;95894.38;;;17.29;50.19
6132;BME280;3097;42.692;23.278;2022-10-16T09:50:55;95887.75;;;17.05;50.78
6132;BME280;3097;42.692;23.278;2022-10-16T09:53:21;95881.28;;;16.91;52.06
6132;BME280;3097;42.692;23.278;2022-10-16T09:55:52;95874.16;;;17.03;52.61
6132;BME280;3097;42.692;23.278;2022-10-16T09:58:17;95882.38;;;17.12;51.23
6132;BME280;3097;42.692;23.278;2022-10-16T10:00:51;95874.47;;;17.07;50.97
6132;BME280;3097;42.692;23.278;2022-10-16T10:06:14;95873.72;;;17.06;50.73
6132;BME280;3097;42.692;23.278;2022-10-16T10:08:51;95869.34;;;16.95;51.16
6132;BME280;3097;42.692;23.278;2022-10-16T10:11:17;95871.47;;;16.81;52.37
6132;BME280;3097;42.692;23.278;2022-10-16T10:13:42;95868.16;;;16.86;51.69
6132;BME280;3097;42.692;23.278;2022-10-16T10:16:08;95865.00;;;17.00;51.67
6132;BME280;3097;42.692;23.278;2022-10-16T10:18:33;95859.00;;;17.00;51.66
6132;BME280;3097;42.692;23.278;2022-10-16T10:21:00;95878.44;;;17.09;51.97
6132;BME280;3097;42.692;23.278;2022-10-16T10:23:28;95868.97;;;17.03;52.59
6132;BME280;3097;42.692;23.278;2022-10-16T10:26:09;95863.59;;;17.10;51.19
6132;BME280;3097;42.692;23.278;2022-10-16T10:33:49;95856.63;;;16.82;53.34
6132;BME280;3097;42.692;23.278;2022-10-16T10:36:46;95854.75;;;16.94;54.08
6132;BME280;3097;42.692;23.278;2022-10-16T10:42:08;95847.09;;;17.04;52.99
6132;BME280;3097;42.692;23.278;2022-10-16T10:45:13;95835.03;;;16.98;52.52
6132;BME280;3097;42.692;23.278;2022-10-16T10:47:59;95836.56;;;16.99;51.65
6132;BME280;3097;42.692;23.278;2022-10-16T10:55:40;95828.69;;;17.11;53.66
6132;BME280;3097;42.692;23.278;2022-10-16T11:01:09;95832.38;;;17.15;53.80
6132;BME280;3097;42.692;23.278;2022-10-16T11:04:08;95830.84;;;17.14;52.92
6132;BME280;3097;42.692;23.278;2022-10-16T11:07:46;95820.41;;;16.97;53.65
6132;BME280;3097;42.692;23.278;2022-10-16T11:10:30;95819.47;;;17.03;54.32
6132;BME280;3097;42.692;23.278;2022-10-16T11:13:06;95810.06;;;17.02;52.15
6132;BME280;3097;42.692;23.278;2022-10-16T11:15:39;95820.94;;;16.99;51.47
6132;BME280;3097;42.692;23.278;2022-10-16T11:18:11;95804.47;;;16.93;51.59
6132;BME280;3097;42.692;23.278;2022-10-16T11:20:51;95820.72;;;17.00;51.46
6132;BME280;3097;42.692;23.278;2022-10-16T11:23:31;95810.69;;;16.92;51.16
6132;BME280;3097;42.692;23.278;2022-10-16T11:26:02;95814.66;;;16.95;51.73
6132;BME280;3097;42.692;23.278;2022-10-16T11:31:08;95807.56;;;16.90;52.39
6132;BME280;3097;42.692;23.278;2022-10-16T11:33:40;95815.44;;;16.95;52.48
6132;BME280;3097;42.692;23.278;2022-10-16T11:39:07;95807.63;;;16.95;53.53
6132;BME280;3097;42.692;23.278;2022-10-16T11:42:18;95809.59;;;17.05;50.58
6132;BME280;3097;42.692;23.278;2022-10-16T11:47:40;95809.91;;;17.09;51.26
6132;BME280;3097;42.692;23.278;2022-10-16T11:53:49;95809.91;;;17.09;52.19
6132;BME280;3097;42.692;23.278;2022-10-16T11:56:19;95805.00;;;17.12;52.63
6132;BME280;3097;42.692;23.278;2022-10-16T11:58:51;95807.22;;;17.20;52.53
6132;BME280;3097;42.692;23.278;2022-10-16T12:01:41;95794.72;;;17.22;51.79
6132;BME280;3097;42.692;23.278;2022-10-16T12:04:43;95802.63;;;17.27;51.59
6132;BME280;3097;42.692;23.278;2022-10-16T12:07:22;95799.47;;;17.25;51.15
6132;BME280;3097;42.692;23.278;2022-10-16T12:09:49;95781.63;;;17.17;51.15
6132;BME280;3097;42.692;23.278;2022-10-16T12:12:38;95798.50;;;17.31;49.09
6132;BME280;3097;42.692;23.278;2022-10-16T12:17:44;95805.13;;;17.61;47.71
6132;BME280;3097;42.692;23.278;2022-10-16T12:22:54;95799.81;;;17.51;48.35
6132;BME280;3097;42.692;23.278;2022-10-16T12:25:53;95803.72;;;17.53;48.88
6132;BME280;3097;42.692;23.278;2022-10-16T12:28:21;95804.59;;;17.59;49.36
6132;BME280;3097;42.692;23.278;2022-10-16T12:30:55;95802.50;;;17.77;48.58
6132;BME280;3097;42.692;23.278;2022-10-16T12:33:30;95802.50;;;17.77;48.97
6132;BME280;3097;42.692;23.278;2022-10-16T12:35:58;95805.84;;;17.73;48.84
6132;BME280;3097;42.692;23.278;2022-10-16T12:38:31;95812.66;;;17.74;48.77
6132;BME280;3097;42.692;23.278;2022-10-16T12:41:08;95797.75;;;17.74;48.49
6132;BME280;3097;42.692;23.278;2022-10-16T12:43:42;95812.13;;;17.77;48.35
6132;BME280;3097;42.692;23.278;2022-10-16T12:48:34;95803.44;;;17.66;47.66
6132;BME280;3097;42.692;23.278;2022-10-16T12:51:34;95801.41;;;17.73;46.17
6132;BME280;3097;42.692;23.278;2022-10-16T12:54:18;95810.28;;;17.72;47.09
6132;BME280;3097;42.692;23.278;2022-10-16T13:00:02;95804.25;;;17.72;47.78
6132;BME280;3097;42.692;23.278;2022-10-16T13:02:53;95805.84;;;17.73;47.88
6132;BME280;3097;42.692;23.278;2022-10-16T13:05:34;95809.44;;;17.89;47.69
6132;BME280;3097;42.692;23.278;2022-10-16T13:22:03;95810.44;;;18.09;42.99
6132;BME280;3097;42.692;23.278;2022-10-16T13:28:00;95811.16;;;18.05;46.07
6132;BME280;3097;42.692;23.278;2022-10-16T13:30:52;95818.66;;;17.96;46.72
6132;BME280;3097;42.692;23.278;2022-10-16T13:35:57;95819.09;;;18.15;45.70
6132;BME280;3097;42.692;23.278;2022-10-16T13:38:26;95800.63;;;17.95;46.42
6132;BME280;3097;42.692;23.278;2022-10-16T13:41:03;95811.34;;;17.98;46.66
6132;BME280;3097;42.692;23.278;2022-10-16T13:43:44;95815.56;;;18.04;47.00
6132;BME280;3097;42.692;23.278;2022-10-16T13:46:21;95807.00;;;18.04;46.11
6132;BME280;3097;42.692;23.278;2022-10-16T13:49:00;95816.25;;;18.16;45.62
6132;BME280;3097;42.692;23.278;2022-10-16T13:51:28;95820.38;;;18.12;45.68
6132;BME280;3097;42.692;23.278;2022-10-16T13:53:55;95819.28;;;18.08;45.63
6132;BME280;3097;42.692;23.278;2022-10-16T13:56:26;95825.59;;;18.12;44.73
6132;BME280;3097;42.692;23.278;2022-10-16T13:59:03;95820.38;;;18.12;44.96
6132;BME280;3097;42.692;23.278;2022-10-16T14:01:55;95825.59;;;18.12;44.58
6132;BME280;3097;42.692;23.278;2022-10-16T14:04:23;95823.25;;;18.11;43.55
6132;BME280;3097;42.692;23.278;2022-10-16T14:06:50;95830.00;;;18.12;43.39
6132;BME280;3097;42.692;23.278;2022-10-16T14:09:25;95828.16;;;18.07;43.72
6132;BME280;3097;42.692;23.278;2022-10-16T14:11:55;95827.06;;;18.03;43.54
6132;BME280;3097;42.692;23.278;2022-10-16T14:14:22;95828.63;;;18.04;43.18
6132;BME280;3097;42.692;23.278;2022-10-16T14:16:48;95824.16;;;18.00;43.47
6132;BME280;3097;42.692;23.278;2022-10-16T14:19:25;95827.34;;;18.07;43.47
6132;BME280;3097;42.692;23.278;2022-10-16T14:21:52;95817.53;;;17.92;43.48
6132;BME280;3097;42.692;23.278;2022-10-16T14:24:47;95826.47;;;17.96;43.10
6132;BME280;3097;42.692;23.278;2022-10-16T14:27:41;95830.75;;;18.07;42.72
6132;BME280;3097;42.692;23.278;2022-10-16T14:30:16;95745.91;;;17.34;42.57
6132;BME280;3097;42.692;23.278;2022-10-16T14:33:03;95837.56;;;17.87;42.94
6132;BME280;3097;42.692;23.278;2022-10-16T14:35:35;95838.78;;;17.79;42.84
6132;BME280;3097;42.692;23.278;2022-10-16T14:38:03;95842.66;;;17.76;42.84
6132;BME280;3097;42.692;23.278;2022-10-16T14:40:32;95826.16;;;17.54;42.01
6132;BME280;3097;42.692;23.278;2022-10-16T14:42:59;95846.84;;;17.61;42.17
6132;BME280;3097;42.692;23.278;2022-10-16T14:45:28;95850.44;;;17.55;42.55
6132;BME280;3097;42.692;23.278;2022-10-16T14:47:57;95850.84;;;17.47;42.93
6132;BME280;3097;42.692;23.278;2022-10-16T14:50:24;95860.63;;;17.39;43.24
6132;BME280;3097;42.692;23.278;2022-10-16T14:52:49;95858.53;;;17.36;43.40
6132;BME280;3097;42.692;23.278;2022-10-16T14:55:15;95834.53;;;17.18;42.89
6132;BME280;3097;42.692;23.278;2022-10-16T14:57:42;95858.94;;;17.28;43.78
6132;BME280;3097;42.692;23.278;2022-10-16T15:00:27;95866.13;;;17.21;44.31
6132;BME280;3097;42.692;23.278;2022-10-16T15:02:53;95869.19;;;17.18;44.60
6132;BME280;3097;42.692;23.278;2022-10-16T15:05:26;95870.69;;;17.14;44.89